createdAt,value
2023-01-13T00:00:51.620Z,47.09
2023-01-13T00:01:55.845Z,47.15
2023-01-13T00:03:00.083Z,47.07
2023-01-13T00:04:04.297Z,47.04
2023-01-13T00:05:08.607Z,47.04
2023-01-13T00:06:12.853Z,46.92
2023-01-13T00:07:17.061Z,46.98
2023-01-13T00:08:21.275Z,47.05
2023-01-13T00:09:25.501Z,46.98
2023-01-13T00:10:29.706Z,46.92
2023-01-13T00:11:33.947Z,46.99
2023-01-13T00:12:38.165Z,46.99
2023-01-13T00:13:42.382Z,47.01
2023-01-13T00:14:46.650Z,47
2023-01-13T00:15:50.994Z,47.05
2023-01-13T00:16:55.274Z,47.01
2023-01-13T00:17:59.505Z,47.07
2023-01-13T00:19:03.743Z,47.08
2023-01-13T00:20:07.994Z,47.03
2023-01-13T00:21:12.272Z,46.99
2023-01-13T00:22:16.545Z,47.04
2023-01-13T00:23:20.806Z,47.06
2023-01-13T00:24:25.041Z,47.06
2023-01-13T00:25:29.321Z,46.97
2023-01-13T00:26:33.545Z,46.97
2023-01-13T00:27:37.760Z,47.11
2023-01-13T00:28:42.062Z,47.09
2023-01-13T00:29:46.347Z,47.09
2023-01-13T00:30:50.684Z,47.12
2023-01-13T00:31:54.935Z,47.15
2023-01-13T00:32:59.230Z,47.11
2023-01-13T00:34:03.560Z,47.13
2023-01-13T00:35:07.780Z,47.05
2023-01-13T00:36:12.000Z,47.18
2023-01-13T00:37:16.255Z,47.15
2023-01-13T00:38:20.499Z,47.2
2023-01-13T00:39:24.756Z,47.16
2023-01-13T00:40:28.974Z,47.27
2023-01-13T00:41:33.175Z,47.28
2023-01-13T00:42:37.406Z,47.27
2023-01-13T00:43:41.665Z,47.27
2023-01-13T00:44:45.910Z,47.29
2023-01-13T00:45:50.158Z,47.21
2023-01-13T00:46:54.597Z,47.27
2023-01-13T00:47:58.844Z,47.35
2023-01-13T00:49:03.110Z,47.36
2023-01-13T00:50:07.322Z,47.41
2023-01-13T00:51:11.544Z,47.45
2023-01-13T00:52:15.781Z,47.45
2023-01-13T00:53:20.018Z,47.42
2023-01-13T00:54:24.251Z,47.56
2023-01-13T00:55:28.506Z,47.45
2023-01-13T00:56:47.579Z,47.56
2023-01-13T00:57:51.854Z,47.58
2023-01-13T00:58:56.084Z,47.67
2023-01-13T01:00:00.381Z,47.62
2023-01-13T01:01:05.073Z,47.59
2023-01-13T01:02:09.709Z,47.47
2023-01-13T01:03:13.964Z,47.67
2023-01-13T01:04:18.195Z,47.8
2023-01-13T01:05:22.490Z,47.73
2023-01-13T01:06:26.743Z,47.74
2023-01-13T01:07:30.994Z,47.67
2023-01-13T01:08:35.217Z,47.85
2023-01-13T01:09:39.537Z,47.91
2023-01-13T01:10:43.827Z,47.87
2023-01-13T01:11:48.068Z,47.81
2023-01-13T01:12:52.280Z,48.13
2023-01-13T01:13:56.546Z,47.97
2023-01-13T01:15:00.801Z,47.95
2023-01-13T01:16:05.230Z,47.92
2023-01-13T01:17:09.506Z,48.17
2023-01-13T01:18:13.730Z,48.11
2023-01-13T01:19:20.497Z,48.23
2023-01-13T01:20:24.759Z,48.06
2023-01-13T01:21:28.972Z,48.04
2023-01-13T01:22:33.230Z,48.28
2023-01-13T01:23:37.486Z,48.27
2023-01-13T01:24:41.796Z,48.28
2023-01-13T01:25:46.055Z,48.28
2023-01-13T01:26:50.346Z,48.32
2023-01-13T01:27:54.673Z,48.37
2023-01-13T01:28:58.898Z,48.29
2023-01-13T01:30:03.137Z,48.36
2023-01-13T01:31:07.668Z,48.31
2023-01-13T01:32:11.914Z,48.43
2023-01-13T01:33:16.225Z,48.41
2023-01-13T01:34:20.485Z,48.43
2023-01-13T01:35:24.705Z,48.41
2023-01-13T01:36:28.958Z,48.39
2023-01-13T01:37:33.236Z,48.44
2023-01-13T01:38:37.455Z,48.35
2023-01-13T01:39:41.708Z,48.43
2023-01-13T01:40:45.927Z,48.42
2023-01-13T01:41:50.123Z,48.42
2023-01-13T01:42:54.337Z,48.36
2023-01-13T01:43:58.601Z,48.46
2023-01-13T01:45:02.885Z,48.51
2023-01-13T01:46:07.134Z,48.4
2023-01-13T01:47:11.401Z,48.54
2023-01-13T01:48:15.651Z,48.38
2023-01-13T01:49:19.918Z,48.35
2023-01-13T01:50:24.151Z,48.37
2023-01-13T01:51:28.389Z,48.43
2023-01-13T01:52:32.617Z,48.44
2023-01-13T01:53:36.908Z,48.43
2023-01-13T01:54:41.165Z,48.39
2023-01-13T01:55:45.427Z,48.41
2023-01-13T01:56:49.647Z,48.47
2023-01-13T01:57:53.962Z,48.4
2023-01-13T01:58:58.269Z,48.49
2023-01-13T02:00:02.572Z,48.49
2023-01-13T02:01:07.213Z,48.49
2023-01-13T02:02:11.947Z,48.47
2023-01-13T02:03:16.181Z,48.47
2023-01-13T02:04:20.419Z,48.51
2023-01-13T02:05:24.883Z,48.48
2023-01-13T02:06:29.187Z,48.51
2023-01-13T02:07:33.430Z,48.51
2023-01-13T02:08:37.667Z,48.48
2023-01-13T02:09:41.948Z,48.55
2023-01-13T02:10:46.194Z,48.73
2023-01-13T02:11:50.409Z,48.43
2023-01-13T02:12:54.691Z,48.5
2023-01-13T02:13:58.943Z,48.49
2023-01-13T02:15:03.220Z,48.5
2023-01-13T02:16:07.612Z,48.48
2023-01-13T02:17:11.869Z,48.5
2023-01-13T02:18:16.128Z,48.54
2023-01-13T02:19:20.361Z,48.53
2023-01-13T02:20:24.800Z,48.6
2023-01-13T02:21:29.134Z,48.63
2023-01-13T02:22:33.355Z,48.69
2023-01-13T02:23:37.578Z,48.66
2023-01-13T02:24:42.024Z,48.63
2023-01-13T02:25:46.359Z,48.53
2023-01-13T02:26:50.695Z,48.59
2023-01-13T02:27:55.385Z,48.57
2023-01-13T02:28:59.775Z,48.58
2023-01-13T02:30:03.983Z,48.58
2023-01-13T02:31:08.220Z,48.62
2023-01-13T02:32:12.579Z,48.62
2023-01-13T02:33:16.825Z,48.62
2023-01-13T02:34:21.040Z,48.61
2023-01-13T02:35:25.261Z,48.59
2023-01-13T02:36:29.491Z,48.61
2023-01-13T02:37:33.765Z,48.62
2023-01-13T02:38:38.008Z,48.65
2023-01-13T02:39:42.271Z,48.65
2023-01-13T02:40:46.488Z,48.58
2023-01-13T02:41:50.707Z,48.65
2023-01-13T02:42:54.946Z,48.63
2023-01-13T02:43:59.149Z,48.64
2023-01-13T02:45:03.415Z,48.63
2023-01-13T02:46:07.881Z,48.64
2023-01-13T02:47:12.133Z,48.65
2023-01-13T02:48:16.364Z,48.62
2023-01-13T02:49:20.643Z,48.59
2023-01-13T02:50:24.833Z,48.6
2023-01-13T02:51:29.048Z,48.61
2023-01-13T02:52:33.231Z,48.62
2023-01-13T02:53:37.494Z,48.62
2023-01-13T02:54:41.709Z,48.6
2023-01-13T02:55:45.972Z,48.62
2023-01-13T02:56:50.168Z,48.54
2023-01-13T02:57:54.379Z,48.63
2023-01-13T02:58:59.190Z,48.61
2023-01-13T03:00:03.318Z,48.61
2023-01-13T03:01:07.766Z,48.68
2023-01-13T03:02:12.672Z,48.57
2023-01-13T03:03:16.863Z,48.55
2023-01-13T03:04:21.020Z,48.53
2023-01-13T03:05:25.174Z,48.55
2023-01-13T03:06:29.524Z,48.51
2023-01-13T03:07:33.637Z,48.45
2023-01-13T03:08:37.747Z,48.52
2023-01-13T03:09:41.851Z,48.54
2023-01-13T03:10:45.955Z,48.5
2023-01-13T03:11:50.072Z,48.55
2023-01-13T03:12:54.189Z,48.63
2023-01-13T03:13:58.365Z,48.95
2023-01-13T03:15:02.535Z,48.86
2023-01-13T03:16:06.647Z,48.86
2023-01-13T03:17:10.764Z,48.85
2023-01-13T03:18:14.885Z,48.83
2023-01-13T03:19:18.985Z,48.83
2023-01-13T03:20:23.188Z,48.83
2023-01-13T03:21:27.283Z,48.82
2023-01-13T03:22:31.397Z,48.96
2023-01-13T03:23:35.514Z,48.87
2023-01-13T03:24:39.667Z,48.57
2023-01-13T03:25:43.792Z,48.64
2023-01-13T03:26:47.902Z,48.7
2023-01-13T03:27:52.018Z,48.66
2023-01-13T03:28:56.119Z,48.69
2023-01-13T03:30:00.229Z,48.59
2023-01-13T03:31:04.425Z,48.61
2023-01-13T03:32:08.522Z,48.65
2023-01-13T03:33:12.638Z,48.68
2023-01-13T03:34:16.731Z,48.57
2023-01-13T03:35:20.879Z,48.73
2023-01-13T03:36:25.130Z,48.62
2023-01-13T03:37:29.228Z,48.6
2023-01-13T03:38:33.367Z,48.48
2023-01-13T03:39:37.538Z,48.38
2023-01-13T03:40:41.656Z,48.47
2023-01-13T03:41:45.802Z,48.4
2023-01-13T03:42:49.877Z,48.37
2023-01-13T03:43:53.972Z,48.46
2023-01-13T03:44:58.103Z,48.5
2023-01-13T03:46:02.571Z,48.48
2023-01-13T03:47:06.790Z,48.46
2023-01-13T03:48:10.887Z,48.39
2023-01-13T03:49:15.050Z,48.34
2023-01-13T03:50:19.135Z,48.3
2023-01-13T03:51:23.221Z,48.29
2023-01-13T03:52:27.338Z,48.29
2023-01-13T03:53:31.453Z,48.24
2023-01-13T03:54:35.562Z,48.16
2023-01-13T03:55:39.677Z,48.16
2023-01-13T03:56:43.803Z,48.1
2023-01-13T03:57:48.090Z,48.07
2023-01-13T03:58:52.288Z,48.05
2023-01-13T03:59:56.407Z,48.04
2023-01-13T04:01:00.989Z,48.07
2023-01-13T04:02:05.729Z,48.04
2023-01-13T04:03:09.928Z,48.05
2023-01-13T04:04:14.034Z,48.06
2023-01-13T04:05:18.219Z,48.1
2023-01-13T04:06:22.337Z,48.07
2023-01-13T04:07:26.433Z,48.11
2023-01-13T04:08:30.665Z,48.1
2023-01-13T04:09:34.806Z,48.13
2023-01-13T04:10:38.966Z,48.11
2023-01-13T04:11:43.109Z,48.09
2023-01-13T04:12:47.223Z,48.07
2023-01-13T04:13:51.322Z,48.05
2023-01-13T04:14:55.410Z,48.01
2023-01-13T04:15:59.760Z,47.97
2023-01-13T04:17:03.921Z,47.91
2023-01-13T04:18:08.021Z,47.87
2023-01-13T04:19:12.394Z,47.85
2023-01-13T04:20:16.506Z,47.81
2023-01-13T04:21:20.590Z,47.8
2023-01-13T04:22:24.720Z,47.73
2023-01-13T04:23:28.839Z,47.65
2023-01-13T04:24:33.034Z,47.65
2023-01-13T04:25:37.151Z,47.68
2023-01-13T04:26:41.256Z,47.69
2023-01-13T04:27:45.362Z,47.69
2023-01-13T04:28:49.501Z,47.69
2023-01-13T04:29:53.620Z,47.74
2023-01-13T04:30:57.934Z,47.76
2023-01-13T04:32:02.074Z,47.76
2023-01-13T04:33:06.184Z,47.82
2023-01-13T04:34:10.322Z,47.86
2023-01-13T04:35:14.428Z,47.85
2023-01-13T04:36:18.539Z,47.85
2023-01-13T04:37:22.686Z,47.87
2023-01-13T04:38:26.791Z,47.84
2023-01-13T04:39:30.963Z,47.8
2023-01-13T04:40:35.080Z,47.81
2023-01-13T04:41:39.192Z,47.7
2023-01-13T04:42:43.305Z,47.63
2023-01-13T04:43:47.439Z,47.65
2023-01-13T04:44:51.611Z,47.65
2023-01-13T04:45:55.866Z,47.57
2023-01-13T04:46:59.999Z,47.57
2023-01-13T04:48:04.153Z,47.51
2023-01-13T04:49:08.279Z,47.5
2023-01-13T04:50:12.405Z,47.48
2023-01-13T04:51:16.539Z,47.5
2023-01-13T04:52:20.655Z,47.54
2023-01-13T04:53:24.758Z,47.54
2023-01-13T04:54:28.882Z,47.56
2023-01-13T04:55:33.056Z,47.58
2023-01-13T04:56:37.178Z,47.62
2023-01-13T04:57:41.296Z,47.63
2023-01-13T04:58:45.436Z,47.67
2023-01-13T04:59:49.543Z,47.73
2023-01-13T05:00:54.136Z,47.76
2023-01-13T05:01:58.606Z,47.81
2023-01-13T05:03:02.777Z,47.84
2023-01-13T05:04:06.885Z,47.86
2023-01-13T05:05:11.275Z,47.89
2023-01-13T05:06:16.325Z,47.93
2023-01-13T05:07:20.452Z,47.93
2023-01-13T05:08:24.558Z,47.97
2023-01-13T05:09:28.692Z,47.96
2023-01-13T05:10:32.827Z,48
2023-01-13T05:11:37.027Z,47.93
2023-01-13T05:12:41.170Z,47.91
2023-01-13T05:13:45.271Z,47.91
2023-01-13T05:14:49.374Z,47.88
2023-01-13T05:15:53.915Z,47.87
2023-01-13T05:16:58.096Z,47.83
2023-01-13T05:18:02.246Z,47.79
2023-01-13T05:19:06.358Z,47.7
2023-01-13T05:20:10.479Z,47.63
2023-01-13T05:21:14.895Z,47.58
2023-01-13T05:22:19.029Z,47.55
2023-01-13T05:23:23.150Z,47.56
2023-01-13T05:24:27.271Z,47.58
2023-01-13T05:25:31.403Z,47.58
2023-01-13T05:26:35.516Z,47.61
2023-01-13T05:27:39.651Z,47.63
2023-01-13T05:28:43.759Z,47.64
2023-01-13T05:29:47.888Z,47.69
2023-01-13T05:30:52.244Z,47.71
2023-01-13T05:31:56.364Z,47.76
2023-01-13T05:33:00.629Z,47.79
2023-01-13T05:34:04.735Z,47.83
2023-01-13T05:35:08.881Z,47.87
2023-01-13T05:36:13.378Z,47.84
2023-01-13T05:37:17.499Z,47.98
2023-01-13T05:38:21.632Z,48.08
2023-01-13T05:39:25.741Z,48.08
2023-01-13T05:40:29.848Z,48.15
2023-01-13T05:41:33.953Z,48.23
2023-01-13T05:42:38.830Z,48.22
2023-01-13T05:43:42.974Z,48.19
2023-01-13T05:44:47.083Z,48.19
2023-01-13T05:45:51.214Z,48.2
2023-01-13T05:46:55.643Z,48.21
2023-01-13T05:47:59.753Z,48.24
2023-01-13T05:49:03.901Z,48.24
2023-01-13T05:50:08.050Z,48.24
2023-01-13T05:51:12.212Z,48.25
2023-01-13T05:52:16.317Z,48.28
2023-01-13T05:53:20.417Z,48.28
2023-01-13T05:54:24.553Z,48.28
2023-01-13T05:55:28.661Z,48.29
2023-01-13T05:56:32.819Z,48.3
2023-01-13T05:57:36.989Z,48.31
2023-01-13T05:58:41.126Z,48.3
2023-01-13T05:59:45.273Z,48.33
2023-01-13T06:00:49.429Z,48.33
2023-01-13T06:01:53.520Z,48.34
2023-01-13T06:02:57.920Z,48.34
2023-01-13T06:04:02.327Z,48.34
2023-01-13T06:05:06.508Z,48.47
2023-01-13T06:06:10.723Z,48.33
2023-01-13T06:07:14.818Z,48.37
2023-01-13T06:08:19.015Z,48.36
2023-01-13T06:09:23.209Z,48.37
2023-01-13T06:10:27.318Z,48.34
2023-01-13T06:11:31.449Z,48.37
2023-01-13T06:12:35.571Z,48.54
2023-01-13T06:13:40.103Z,48.44
2023-01-13T06:14:44.589Z,48.58
2023-01-13T06:15:48.921Z,48.59
2023-01-13T06:16:53.057Z,48.46
2023-01-13T06:17:57.258Z,48.65
2023-01-13T06:19:01.390Z,48.67
2023-01-13T06:20:05.531Z,48.57
2023-01-13T06:21:09.655Z,48.54
2023-01-13T06:22:13.795Z,48.6
2023-01-13T06:23:17.941Z,48.59
2023-01-13T06:24:22.062Z,48.5
2023-01-13T06:25:26.173Z,48.57
2023-01-13T06:26:30.304Z,48.58
2023-01-13T06:27:34.429Z,48.52
2023-01-13T06:28:38.645Z,48.41
2023-01-13T06:29:42.737Z,48.39
2023-01-13T06:30:46.887Z,48.37
2023-01-13T06:31:51.212Z,48.38
2023-01-13T06:32:55.314Z,48.42
2023-01-13T06:33:59.406Z,48.47
2023-01-13T06:35:06.707Z,48.42
2023-01-13T06:36:10.818Z,48.45
2023-01-13T06:37:14.914Z,48.48
2023-01-13T06:38:19.052Z,48.49
2023-01-13T06:39:23.171Z,48.48
2023-01-13T06:40:27.362Z,48.49
2023-01-13T06:41:31.810Z,48.52
2023-01-13T06:42:35.912Z,48.69
2023-01-13T06:43:40.083Z,48.6
2023-01-13T06:44:44.207Z,48.59
2023-01-13T06:45:48.352Z,48.48
2023-01-13T06:46:52.690Z,48.44
2023-01-13T06:47:56.816Z,48.54
2023-01-13T06:49:00.920Z,48.56
2023-01-13T06:50:05.048Z,48.52
2023-01-13T06:51:09.190Z,48.62
2023-01-13T06:52:13.308Z,48.62
2023-01-13T06:53:17.542Z,48.68
2023-01-13T06:54:21.671Z,48.67
2023-01-13T06:55:25.788Z,48.69
2023-01-13T06:56:29.876Z,48.78
2023-01-13T06:57:33.994Z,48.77
2023-01-13T06:58:38.136Z,48.84
2023-01-13T06:59:42.280Z,49.02
2023-01-13T07:00:46.553Z,48.96
2023-01-13T07:01:51.558Z,48.83
2023-01-13T07:02:55.900Z,48.83
2023-01-13T07:04:00.065Z,48.85
2023-01-13T07:05:04.156Z,48.94
2023-01-13T07:06:08.277Z,49.01
2023-01-13T07:07:12.462Z,48.96
2023-01-13T07:08:16.582Z,49.04
2023-01-13T07:09:20.845Z,48.98
2023-01-13T07:10:24.937Z,48.94
2023-01-13T07:11:29.057Z,48.98
2023-01-13T07:12:33.167Z,48.98
2023-01-13T07:13:37.289Z,48.98
2023-01-13T07:14:41.420Z,49.04
2023-01-13T07:15:45.527Z,48.88
2023-01-13T07:16:49.869Z,48.97
2023-01-13T07:17:54.170Z,48.93
2023-01-13T07:18:58.279Z,48.93
2023-01-13T07:20:02.405Z,49.02
2023-01-13T07:21:06.559Z,48.95
2023-01-13T07:22:10.641Z,48.93
2023-01-13T07:23:14.733Z,48.95
2023-01-13T07:24:18.849Z,48.97
2023-01-13T07:25:23.009Z,49
2023-01-13T07:26:27.246Z,48.99
2023-01-13T07:27:31.364Z,48.94
2023-01-13T07:28:35.477Z,48.98
2023-01-13T07:29:39.644Z,48.96
2023-01-13T07:30:43.770Z,49
2023-01-13T07:31:51.843Z,49.01
2023-01-13T07:32:56.083Z,49
2023-01-13T07:34:00.771Z,48.97
2023-01-13T07:35:04.929Z,48.98
2023-01-13T07:36:09.046Z,48.97
2023-01-13T07:37:13.222Z,49.08
2023-01-13T07:38:17.350Z,48.96
2023-01-13T07:39:21.456Z,49.04
2023-01-13T07:40:25.604Z,49.05
2023-01-13T07:41:29.724Z,49.06
2023-01-13T07:42:33.817Z,49.09
2023-01-13T07:43:37.949Z,49.1
2023-01-13T07:44:42.111Z,49
2023-01-13T07:45:46.415Z,49.08
2023-01-13T07:46:50.609Z,49.13
2023-01-13T07:47:54.745Z,49.07
2023-01-13T07:48:58.873Z,49.1
2023-01-13T07:50:02.975Z,49.1
2023-01-13T07:51:07.148Z,49.14
2023-01-13T07:52:11.279Z,49.08
2023-01-13T07:53:15.411Z,49.12
2023-01-13T07:54:39.966Z,49.09
2023-01-13T07:55:44.673Z,49.07
2023-01-13T07:56:48.803Z,49.03
2023-01-13T07:57:52.923Z,49.01
2023-01-13T07:58:57.056Z,49.1
2023-01-13T08:00:01.186Z,48.94
2023-01-13T08:01:05.574Z,48.92
2023-01-13T08:02:10.343Z,48.91
2023-01-13T08:03:14.589Z,49.07
2023-01-13T08:04:18.719Z,49.04
2023-01-13T08:05:22.839Z,49.09
2023-01-13T08:06:26.957Z,48.98
2023-01-13T08:07:31.120Z,49
2023-01-13T08:08:35.273Z,48.96
2023-01-13T08:09:39.745Z,49.04
2023-01-13T08:10:43.847Z,49.09
2023-01-13T08:11:47.956Z,48.96
2023-01-13T08:12:58.101Z,49.08
2023-01-13T08:14:02.252Z,49
2023-01-13T08:15:06.365Z,49.03
2023-01-13T08:16:10.543Z,49.08
2023-01-13T08:17:14.665Z,49.12
2023-01-13T08:18:18.780Z,49.06
2023-01-13T08:19:22.903Z,49.06
2023-01-13T08:20:27.111Z,48.99
2023-01-13T08:21:31.485Z,49.06
2023-01-13T08:22:35.610Z,49.12
2023-01-13T08:23:39.820Z,49.02
2023-01-13T08:24:44.004Z,48.99
2023-01-13T08:25:48.137Z,49
2023-01-13T08:26:52.249Z,49.06
2023-01-13T08:27:56.395Z,49.07
2023-01-13T08:29:00.535Z,48.99
2023-01-13T08:30:04.656Z,49
2023-01-13T08:31:09.121Z,49.01
2023-01-13T08:32:13.310Z,49.1
2023-01-13T08:33:17.426Z,49
2023-01-13T08:34:21.541Z,49.08
2023-01-13T08:35:25.660Z,49.08
2023-01-13T08:36:29.792Z,49
2023-01-13T08:37:33.979Z,49.08
2023-01-13T08:38:38.133Z,49.01
2023-01-13T08:39:42.270Z,49.04
2023-01-13T08:40:46.422Z,48.93
2023-01-13T08:41:50.539Z,49
2023-01-13T08:42:54.645Z,49.07
2023-01-13T08:43:58.770Z,49.06
2023-01-13T08:45:02.967Z,49.01
2023-01-13T08:46:07.330Z,49.03
2023-01-13T08:47:11.472Z,49.02
2023-01-13T08:48:15.587Z,48.95
2023-01-13T08:49:19.721Z,49.07
2023-01-13T08:50:23.862Z,49.05
2023-01-13T08:51:28.181Z,48.98
2023-01-13T08:52:32.348Z,49.01
2023-01-13T08:53:36.652Z,49.08
2023-01-13T08:54:40.773Z,49.17
2023-01-13T08:55:44.890Z,49.24
2023-01-13T08:56:49.262Z,49.16
2023-01-13T08:58:15.162Z,49.05
2023-01-13T08:59:19.483Z,49.09
2023-01-13T09:00:23.617Z,49.1
2023-01-13T09:01:28.272Z,49.08
2023-01-13T09:02:32.724Z,49.07
2023-01-13T09:03:36.830Z,49.05
2023-01-13T09:04:41.462Z,49.09
2023-01-13T09:05:45.688Z,49.11
2023-01-13T09:06:49.812Z,49.13
2023-01-13T09:07:53.958Z,49.06
2023-01-13T09:08:58.100Z,49.13
2023-01-13T09:10:02.223Z,49.1
2023-01-13T09:11:06.412Z,49.05
2023-01-13T09:12:10.554Z,49.17
2023-01-13T09:13:14.980Z,49.23
2023-01-13T09:14:19.267Z,49.07
2023-01-13T09:15:23.443Z,49.02
2023-01-13T09:16:27.550Z,49.15
2023-01-13T09:17:31.710Z,49.1
2023-01-13T09:18:35.870Z,49.07
2023-01-13T09:19:40.003Z,49.24
2023-01-13T09:20:44.123Z,49.21
2023-01-13T09:21:48.266Z,49.09
2023-01-13T09:22:52.458Z,49.03
2023-01-13T09:23:56.556Z,49.05
2023-01-13T09:25:00.695Z,49.15
2023-01-13T09:26:04.843Z,49.37
2023-01-13T09:27:08.993Z,49.26
2023-01-13T09:28:13.150Z,49.3
2023-01-13T09:29:17.424Z,49.29
2023-01-13T09:30:21.737Z,49.29
2023-01-13T09:31:25.934Z,49.43
2023-01-13T09:32:30.145Z,49.29
2023-01-13T09:33:34.350Z,49.29
2023-01-13T09:34:38.523Z,49.36
2023-01-13T09:35:42.647Z,49.45
2023-01-13T09:36:46.802Z,49.36
2023-01-13T09:37:50.948Z,49.37
2023-01-13T09:38:55.363Z,49.49
2023-01-13T09:39:59.514Z,49.26
2023-01-13T09:41:03.607Z,49.18
2023-01-13T09:42:07.712Z,49.25
2023-01-13T09:43:11.893Z,49.25
2023-01-13T09:44:16.027Z,49.27
2023-01-13T09:45:20.187Z,49.11
2023-01-13T09:46:24.479Z,49.25
2023-01-13T09:47:28.635Z,49.19
2023-01-13T09:48:32.801Z,49.15
2023-01-13T09:49:37.051Z,49.25
2023-01-13T09:50:41.190Z,49.24
2023-01-13T09:51:45.566Z,49.25
2023-01-13T09:52:49.715Z,49.12
2023-01-13T09:53:53.849Z,49.18
2023-01-13T09:54:57.986Z,49.26
2023-01-13T09:56:02.181Z,49.3
2023-01-13T09:57:06.303Z,49.28
2023-01-13T09:58:10.747Z,49.29
2023-01-13T09:59:14.948Z,49.33
2023-01-13T10:00:19.054Z,49.2
2023-01-13T10:01:23.414Z,49.22
2023-01-13T10:02:27.608Z,49.38
2023-01-13T10:03:32.099Z,49.34
2023-01-13T10:04:36.431Z,49.42
2023-01-13T10:05:40.580Z,49.98
2023-01-13T10:06:44.696Z,49.82
2023-01-13T10:07:50.585Z,49.64
2023-01-13T10:08:54.731Z,49.7
2023-01-13T10:09:59.144Z,49.63
2023-01-13T10:11:03.276Z,49.43
2023-01-13T10:12:07.377Z,49.26
2023-01-13T10:13:11.553Z,49.36
2023-01-13T10:14:15.667Z,49.33
2023-01-13T10:15:19.808Z,49.28
2023-01-13T10:16:24.101Z,49.3
2023-01-13T10:17:28.248Z,49.21
2023-01-13T10:18:32.344Z,49.2
2023-01-13T10:19:36.458Z,49.57
2023-01-13T10:20:40.614Z,49.76
2023-01-13T10:21:44.793Z,49.51
2023-01-13T10:22:48.900Z,49.63
2023-01-13T10:23:53.307Z,49.1
2023-01-13T10:24:57.504Z,49.28
2023-01-13T10:26:02.006Z,49.4
2023-01-13T10:27:06.223Z,49.26
2023-01-13T10:28:10.364Z,49.52
2023-01-13T10:29:14.472Z,49.29
2023-01-13T10:30:18.840Z,49.3
2023-01-13T10:31:23.348Z,49.11
2023-01-13T10:32:27.515Z,49.14
2023-01-13T10:33:31.699Z,49.13
2023-01-13T10:34:35.907Z,49.04
2023-01-13T10:35:40.220Z,48.97
2023-01-13T10:36:44.497Z,49.5
2023-01-13T10:37:48.947Z,50
2023-01-13T10:38:53.112Z,49.99
2023-01-13T10:39:57.264Z,49.17
2023-01-13T10:41:01.407Z,48.51
2023-01-13T10:42:05.595Z,46.22
2023-01-13T10:43:09.716Z,44.34
2023-01-13T10:44:13.840Z,43.53
2023-01-13T10:45:17.932Z,43.03
2023-01-13T10:46:22.421Z,43.76
2023-01-13T10:47:26.645Z,42.96
2023-01-13T10:48:30.770Z,45.17
2023-01-13T10:49:34.995Z,45.78
2023-01-13T10:50:39.085Z,46.34
2023-01-13T10:51:43.201Z,46.2
2023-01-13T10:52:47.308Z,45.77
2023-01-13T10:53:51.406Z,45.39
2023-01-13T10:54:55.518Z,45.76
2023-01-13T10:55:59.639Z,45.5
2023-01-13T10:57:03.794Z,44.41
2023-01-13T10:58:07.937Z,44.83
2023-01-13T10:59:12.236Z,43.87
2023-01-13T11:00:16.384Z,43.77
2023-01-13T11:01:20.929Z,42.96
2023-01-13T11:02:28.927Z,43.94
2023-01-13T11:03:33.071Z,43.95
2023-01-13T11:04:37.535Z,44.13
2023-01-13T11:05:41.781Z,43.2
2023-01-13T11:06:45.877Z,43.97
2023-01-13T11:07:49.978Z,43.77
2023-01-13T11:08:54.096Z,43.85
2023-01-13T11:09:58.208Z,43.97
2023-01-13T11:11:02.338Z,43.55
2023-01-13T11:12:06.428Z,43.98
2023-01-13T11:13:10.517Z,43.71
2023-01-13T11:14:14.656Z,43.7
2023-01-13T11:15:18.763Z,43.06
2023-01-13T11:16:23.168Z,43.1
2023-01-13T11:17:27.284Z,43.03
2023-01-13T11:18:31.438Z,42.71
2023-01-13T11:19:38.759Z,41.66
2023-01-13T11:20:42.896Z,41.35
2023-01-13T11:21:47.008Z,41.53
2023-01-13T11:22:51.136Z,41.62
2023-01-13T11:23:55.240Z,41.93
2023-01-13T11:24:59.377Z,42.18
2023-01-13T11:26:03.540Z,42.03
2023-01-13T11:27:07.648Z,41.79
2023-01-13T11:28:11.768Z,41.55
2023-01-13T11:29:15.861Z,41.54
2023-01-13T11:30:19.992Z,41.68
2023-01-13T11:31:24.313Z,41.58
2023-01-13T11:32:28.464Z,41.47
2023-01-13T11:33:32.594Z,41.44
2023-01-13T11:34:36.757Z,41.39
2023-01-13T11:35:40.873Z,41.41
2023-01-13T11:36:45.097Z,41.25
2023-01-13T11:37:49.195Z,41.24
2023-01-13T11:38:53.294Z,41.28
2023-01-13T11:39:57.420Z,41.34
2023-01-13T11:41:01.534Z,41.18
2023-01-13T11:42:05.805Z,41.25
2023-01-13T11:43:10.028Z,41.37
2023-01-13T11:44:14.139Z,41.21
2023-01-13T11:45:18.224Z,41.34
2023-01-13T11:46:22.450Z,41.13
2023-01-13T11:47:26.623Z,41
2023-01-13T11:48:30.749Z,41.29
2023-01-13T11:49:34.879Z,41.18
2023-01-13T11:50:39.016Z,40.89
2023-01-13T11:51:43.142Z,41.04
2023-01-13T11:52:47.258Z,40.92
2023-01-13T11:53:51.348Z,40.87
2023-01-13T11:54:55.445Z,40.88
2023-01-13T11:55:59.631Z,40.77
2023-01-13T11:57:03.745Z,40.91
2023-01-13T11:58:07.839Z,40.95
2023-01-13T11:59:11.986Z,40.8
2023-01-13T12:00:16.250Z,40.89
2023-01-13T12:01:23.998Z,40.81
2023-01-13T12:02:28.331Z,40.72
2023-01-13T12:03:32.739Z,40.76
2023-01-13T12:04:36.873Z,40.81
2023-01-13T12:05:40.980Z,40.76
2023-01-13T12:06:45.111Z,40.77
2023-01-13T12:07:49.215Z,40.74
2023-01-13T12:08:53.367Z,40.61
2023-01-13T12:09:57.566Z,40.58
2023-01-13T12:11:01.738Z,40.47
2023-01-13T12:12:05.837Z,40.5
2023-01-13T12:13:10.011Z,40.61
2023-01-13T12:14:14.164Z,40.64
2023-01-13T12:15:18.306Z,40.58
2023-01-13T12:16:22.604Z,40.38
2023-01-13T12:17:26.709Z,40.39
2023-01-13T12:18:30.847Z,40.52
2023-01-13T12:19:34.983Z,40.45
2023-01-13T12:20:39.087Z,40.2
2023-01-13T12:21:43.518Z,40.07
2023-01-13T12:22:47.661Z,40.08
2023-01-13T12:23:51.827Z,39.76
2023-01-13T12:24:55.979Z,39.87
2023-01-13T12:26:00.125Z,39.93
2023-01-13T12:27:04.402Z,40.01
2023-01-13T12:28:08.549Z,40
2023-01-13T12:29:12.712Z,40.24
2023-01-13T12:30:16.899Z,40.33
2023-01-13T12:31:21.191Z,40.45
2023-01-13T12:32:25.383Z,40.37
2023-01-13T12:33:29.500Z,40.32
2023-01-13T12:34:33.658Z,40.28
2023-01-13T12:35:37.860Z,40.15
2023-01-13T12:36:45.382Z,40.11
2023-01-13T12:37:49.584Z,40.22
2023-01-13T12:38:53.686Z,40.29
2023-01-13T12:39:57.858Z,40.32
2023-01-13T12:41:01.954Z,40.33
2023-01-13T12:42:06.065Z,40.31
2023-01-13T12:43:10.223Z,40.06
2023-01-13T12:44:14.367Z,40.15
2023-01-13T12:45:20.461Z,40.36
2023-01-13T12:46:25.147Z,40.29
2023-01-13T12:47:29.270Z,40.33
2023-01-13T12:48:33.407Z,40.43
2023-01-13T12:49:37.531Z,40.49
2023-01-13T12:50:41.968Z,40.53
2023-01-13T12:51:46.091Z,40.43
2023-01-13T12:52:52.200Z,40.47
2023-01-13T12:53:56.489Z,40.61
2023-01-13T12:55:00.652Z,40.64
2023-01-13T12:56:04.787Z,40.69
2023-01-13T12:57:08.863Z,40.67
2023-01-13T12:58:13.062Z,40.74
2023-01-13T12:59:17.162Z,40.69
2023-01-13T13:00:21.281Z,40.73
2023-01-13T13:01:25.906Z,40.74
2023-01-13T13:02:30.195Z,40.73
2023-01-13T13:03:34.323Z,40.69
2023-01-13T13:04:38.511Z,40.77
2023-01-13T13:05:42.736Z,40.76
2023-01-13T13:06:46.890Z,40.85
2023-01-13T13:07:51.042Z,40.87
2023-01-13T13:08:55.179Z,40.9
2023-01-13T13:09:59.303Z,40.93
2023-01-13T13:11:03.515Z,40.86
2023-01-13T13:12:07.654Z,40.87
2023-01-13T13:13:11.780Z,40.95
2023-01-13T13:14:15.913Z,40.97
2023-01-13T13:15:20.215Z,40.99
2023-01-13T13:16:24.552Z,41
2023-01-13T13:17:28.688Z,41.05
2023-01-13T13:18:32.785Z,41.05
2023-01-13T13:19:36.905Z,41.08
2023-01-13T13:20:40.997Z,41.11
2023-01-13T13:21:45.126Z,41.13
2023-01-13T13:22:49.289Z,41.14
2023-01-13T13:23:53.391Z,41.18
2023-01-13T13:24:57.605Z,41.21
2023-01-13T13:26:01.778Z,41.17
2023-01-13T13:27:05.889Z,41.24
2023-01-13T13:28:09.997Z,41.3
2023-01-13T13:29:14.160Z,41.3
2023-01-13T13:30:18.312Z,41.32
2023-01-13T13:31:22.615Z,41.33
2023-01-13T13:32:26.759Z,41.35
2023-01-13T13:33:30.854Z,41.36
2023-01-13T13:34:34.969Z,41.35
